sensor_id;sensor_type;location;lat;lon;timestamp;temperature;humidity
5932;DHT22;2991;49.368;8.528;2022-07-10T00:05:57;27.10;92.40
5932;DHT22;2991;49.368;8.528;2022-07-10T00:08:36;27.10;92.40
5932;DHT22;2991;49.368;8.528;2022-07-10T00:11:02;27.10;92.40
5932;DHT22;2991;49.368;8.528;2022-07-10T00:13:27;27.10;92.40
5932;DHT22;2991;49.368;8.528;2022-07-10T00:15:53;27.10;92.40
5932;DHT22;2991;49.368;8.528;2022-07-10T00:18:18;27.10;92.40
5932;DHT22;2991;49.368;8.528;2022-07-10T00:20:44;27.10;92.40
5932;DHT22;2991;49.368;8.528;2022-07-10T00:23:09;27.10;92.40
5932;DHT22;2991;49.368;8.528;2022-07-10T00:25:35;27.00;92.40
5932;DHT22;2991;49.368;8.528;2022-07-10T00:28:00;27.00;92.30
5932;DHT22;2991;49.368;8.528;2022-07-10T00:30:26;27.00;92.20
5932;DHT22;2991;49.368;8.528;2022-07-10T00:32:52;27.00;92.20
5932;DHT22;2991;49.368;8.528;2022-07-10T00:35:17;27.00;92.20
5932;DHT22;2991;49.368;8.528;2022-07-10T00:37:43;27.00;92.20
5932;DHT22;2991;49.368;8.528;2022-07-10T00:40:08;26.90;92.20
5932;DHT22;2991;49.368;8.528;2022-07-10T00:42:34;26.90;92.30
5932;DHT22;2991;49.368;8.528;2022-07-10T00:44:59;27.00;92.40
5932;DHT22;2991;49.368;8.528;2022-07-10T00:47:25;26.90;92.30
5932;DHT22;2991;49.368;8.528;2022-07-10T00:49:50;26.90;92.30
5932;DHT22;2991;49.368;8.528;2022-07-10T00:52:17;26.90;92.20
5932;DHT22;2991;49.368;8.528;2022-07-10T00:54:45;26.90;92.20
5932;DHT22;2991;49.368;8.528;2022-07-10T00:57:12;26.90;92.20
5932;DHT22;2991;49.368;8.528;2022-07-10T00:59:38;26.90;92.20
5932;DHT22;2991;49.368;8.528;2022-07-10T01:02:04;26.90;92.20
5932;DHT22;2991;49.368;8.528;2022-07-10T01:04:31;26.90;92.20
5932;DHT22;2991;49.368;8.528;2022-07-10T01:06:56;26.80;92.10
5932;DHT22;2991;49.368;8.528;2022-07-10T01:09:22;26.80;92.00
5932;DHT22;2991;49.368;8.528;2022-07-10T01:11:48;26.80;92.00
5932;DHT22;2991;49.368;8.528;2022-07-10T01:14:15;26.80;91.90
5932;DHT22;2991;49.368;8.528;2022-07-10T01:16:41;26.80;91.90
5932;DHT22;2991;49.368;8.528;2022-07-10T01:19:07;26.80;91.80
5932;DHT22;2991;49.368;8.528;2022-07-10T01:21:34;26.70;91.70
5932;DHT22;2991;49.368;8.528;2022-07-10T01:24:04;26.70;91.60
5932;DHT22;2991;49.368;8.528;2022-07-10T01:26:31;26.70;91.60
5932;DHT22;2991;49.368;8.528;2022-07-10T01:28:57;26.70;91.60
5932;DHT22;2991;49.368;8.528;2022-07-10T01:31:26;26.70;91.50
5932;DHT22;2991;49.368;8.528;2022-07-10T01:33:54;26.70;91.50
5932;DHT22;2991;49.368;8.528;2022-07-10T01:36:21;26.70;91.50
5932;DHT22;2991;49.368;8.528;2022-07-10T01:38:47;26.70;91.50
5932;DHT22;2991;49.368;8.528;2022-07-10T01:41:12;26.70;91.50
5932;DHT22;2991;49.368;8.528;2022-07-10T01:43:39;26.70;91.40
5932;DHT22;2991;49.368;8.528;2022-07-10T01:46:08;26.60;91.40
5932;DHT22;2991;49.368;8.528;2022-07-10T01:48:37;26.60;91.30
5932;DHT22;2991;49.368;8.528;2022-07-10T01:51:03;26.60;91.30
5932;DHT22;2991;49.368;8.528;2022-07-10T01:53:29;26.60;91.20
5932;DHT22;2991;49.368;8.528;2022-07-10T01:55:55;26.60;91.20
5932;DHT22;2991;49.368;8.528;2022-07-10T01:58:21;26.60;91.20
5932;DHT22;2991;49.368;8.528;2022-07-10T02:00:46;26.60;91.20
5932;DHT22;2991;49.368;8.528;2022-07-10T02:03:12;26.50;91.10
5932;DHT22;2991;49.368;8.528;2022-07-10T02:05:56;26.60;91.10
5932;DHT22;2991;49.368;8.528;2022-07-10T02:08:21;26.60;91.00
5932;DHT22;2991;49.368;8.528;2022-07-10T02:10:47;26.60;91.00
5932;DHT22;2991;49.368;8.528;2022-07-10T02:13:12;26.50;91.00
5932;DHT22;2991;49.368;8.528;2022-07-10T02:15:40;26.50;91.00
5932;DHT22;2991;49.368;8.528;2022-07-10T02:18:07;26.50;91.00
5932;DHT22;2991;49.368;8.528;2022-07-10T02:20:32;26.50;91.00
5932;DHT22;2991;49.368;8.528;2022-07-10T02:23:00;26.50;90.90
5932;DHT22;2991;49.368;8.528;2022-07-10T02:25:25;26.50;90.90
5932;DHT22;2991;49.368;8.528;2022-07-10T02:27:51;26.50;90.90
5932;DHT22;2991;49.368;8.528;2022-07-10T02:30:16;26.50;90.80
5932;DHT22;2991;49.368;8.528;2022-07-10T02:32:42;26.50;90.80
5932;DHT22;2991;49.368;8.528;2022-07-10T02:35:08;26.40;90.80
5932;DHT22;2991;49.368;8.528;2022-07-10T02:37:34;26.40;90.80
5932;DHT22;2991;49.368;8.528;2022-07-10T02:39:59;26.40;90.80
5932;DHT22;2991;49.368;8.528;2022-07-10T02:42:25;26.40;90.80
5932;DHT22;2991;49.368;8.528;2022-07-10T02:44:50;26.40;90.80
5932;DHT22;2991;49.368;8.528;2022-07-10T02:47:16;26.40;90.80
5932;DHT22;2991;49.368;8.528;2022-07-10T02:49:42;26.40;90.80
5932;DHT22;2991;49.368;8.528;2022-07-10T02:52:09;26.40;90.70
5932;DHT22;2991;49.368;8.528;2022-07-10T02:54:34;26.30;90.60
5932;DHT22;2991;49.368;8.528;2022-07-10T02:57:00;26.30;90.60
5932;DHT22;2991;49.368;8.528;2022-07-10T02:59:25;26.30;90.60
5932;DHT22;2991;49.368;8.528;2022-07-10T03:01:51;26.30;90.50
5932;DHT22;2991;49.368;8.528;2022-07-10T03:04:17;26.30;90.60
5932;DHT22;2991;49.368;8.528;2022-07-10T03:06:43;26.30;90.50
5932;DHT22;2991;49.368;8.528;2022-07-10T03:09:08;26.30;90.60
5932;DHT22;2991;49.368;8.528;2022-07-10T03:11:34;26.30;90.50
5932;DHT22;2991;49.368;8.528;2022-07-10T03:14:00;26.30;90.40
5932;DHT22;2991;49.368;8.528;2022-07-10T03:16:25;26.20;90.40
5932;DHT22;2991;49.368;8.528;2022-07-10T03:18:51;26.20;90.30
5932;DHT22;2991;49.368;8.528;2022-07-10T03:21:16;26.20;90.30
5932;DHT22;2991;49.368;8.528;2022-07-10T03:23:42;26.20;90.30
5932;DHT22;2991;49.368;8.528;2022-07-10T03:26:07;26.20;90.30
5932;DHT22;2991;49.368;8.528;2022-07-10T03:28:33;26.20;90.20
5932;DHT22;2991;49.368;8.528;2022-07-10T03:30:58;26.20;90.20
5932;DHT22;2991;49.368;8.528;2022-07-10T03:33:24;26.10;90.10
5932;DHT22;2991;49.368;8.528;2022-07-10T03:35:50;26.10;90.20
5932;DHT22;2991;49.368;8.528;2022-07-10T03:38:15;26.10;90.10
5932;DHT22;2991;49.368;8.528;2022-07-10T03:40:41;26.10;90.10
5932;DHT22;2991;49.368;8.528;2022-07-10T03:43:06;26.10;90.10
5932;DHT22;2991;49.368;8.528;2022-07-10T03:45:32;26.10;90.10
5932;DHT22;2991;49.368;8.528;2022-07-10T03:47:57;26.10;90.10
5932;DHT22;2991;49.368;8.528;2022-07-10T03:50:23;26.10;90.10
5932;DHT22;2991;49.368;8.528;2022-07-10T03:52:48;26.10;90.10
5932;DHT22;2991;49.368;8.528;2022-07-10T03:55:14;26.10;90.10
5932;DHT22;2991;49.368;8.528;2022-07-10T03:57:40;26.00;90.00
5932;DHT22;2991;49.368;8.528;2022-07-10T04:00:25;26.00;90.00
5932;DHT22;2991;49.368;8.528;2022-07-10T04:02:56;26.00;90.00
5932;DHT22;2991;49.368;8.528;2022-07-10T04:05:23;26.00;90.00
5932;DHT22;2991;49.368;8.528;2022-07-10T04:07:49;26.00;90.00
5932;DHT22;2991;49.368;8.528;2022-07-10T04:10:15;26.00;90.10
5932;DHT22;2991;49.368;8.528;2022-07-10T04:12:41;26.00;90.00
5932;DHT22;2991;49.368;8.528;2022-07-10T04:15:07;26.00;90.00
5932;DHT22;2991;49.368;8.528;2022-07-10T04:17:33;26.00;90.00
5932;DHT22;2991;49.368;8.528;2022-07-10T04:19:59;26.00;90.10
5932;DHT22;2991;49.368;8.528;2022-07-10T04:22:26;26.00;90.10
5932;DHT22;2991;49.368;8.528;2022-07-10T04:24:52;25.90;90.00
5932;DHT22;2991;49.368;8.528;2022-07-10T04:27:17;25.90;90.00
5932;DHT22;2991;49.368;8.528;2022-07-10T04:29:43;25.90;90.10
5932;DHT22;2991;49.368;8.528;2022-07-10T04:32:09;25.90;90.00
5932;DHT22;2991;49.368;8.528;2022-07-10T04:34:34;25.90;90.00
5932;DHT22;2991;49.368;8.528;2022-07-10T04:37:00;25.90;90.00
5932;DHT22;2991;49.368;8.528;2022-07-10T04:39:26;25.90;90.00
5932;DHT22;2991;49.368;8.528;2022-07-10T04:41:52;25.90;90.00
5932;DHT22;2991;49.368;8.528;2022-07-10T04:44:18;25.90;89.90
5932;DHT22;2991;49.368;8.528;2022-07-10T04:46:43;25.80;89.70
5932;DHT22;2991;49.368;8.528;2022-07-10T04:49:09;25.80;89.60
5932;DHT22;2991;49.368;8.528;2022-07-10T04:51:35;25.80;89.50
5932;DHT22;2991;49.368;8.528;2022-07-10T04:54:00;25.80;89.60
5932;DHT22;2991;49.368;8.528;2022-07-10T04:56:26;25.80;89.40
5932;DHT22;2991;49.368;8.528;2022-07-10T04:58:51;25.80;89.40
5932;DHT22;2991;49.368;8.528;2022-07-10T05:01:17;25.80;89.40
5932;DHT22;2991;49.368;8.528;2022-07-10T05:03:43;25.80;89.30
5932;DHT22;2991;49.368;8.528;2022-07-10T05:06:08;25.80;89.20
5932;DHT22;2991;49.368;8.528;2022-07-10T05:08:34;25.80;89.20
5932;DHT22;2991;49.368;8.528;2022-07-10T05:10:59;25.70;89.10
5932;DHT22;2991;49.368;8.528;2022-07-10T05:13:25;25.80;89.10
5932;DHT22;2991;49.368;8.528;2022-07-10T05:15:51;25.70;88.70
5932;DHT22;2991;49.368;8.528;2022-07-10T05:18:16;25.70;88.20
5932;DHT22;2991;49.368;8.528;2022-07-10T05:20:42;25.60;88.20
5932;DHT22;2991;49.368;8.528;2022-07-10T05:23:10;25.60;88.20
5932;DHT22;2991;49.368;8.528;2022-07-10T05:25:37;25.60;88.40
5932;DHT22;2991;49.368;8.528;2022-07-10T05:28:04;25.60;88.70
5932;DHT22;2991;49.368;8.528;2022-07-10T05:30:30;25.60;88.80
5932;DHT22;2991;49.368;8.528;2022-07-10T05:32:56;25.60;88.90
5932;DHT22;2991;49.368;8.528;2022-07-10T05:35:21;25.60;88.90
5932;DHT22;2991;49.368;8.528;2022-07-10T05:37:47;25.60;88.90
5932;DHT22;2991;49.368;8.528;2022-07-10T05:40:12;25.60;89.00
5932;DHT22;2991;49.368;8.528;2022-07-10T05:42:38;25.60;89.00
5932;DHT22;2991;49.368;8.528;2022-07-10T05:45:04;25.60;89.10
5932;DHT22;2991;49.368;8.528;2022-07-10T05:47:31;25.60;89.10
5932;DHT22;2991;49.368;8.528;2022-07-10T05:49:56;25.60;89.10
5932;DHT22;2991;49.368;8.528;2022-07-10T05:52:22;25.60;89.10
5932;DHT22;2991;49.368;8.528;2022-07-10T05:54:47;25.60;89.10
5932;DHT22;2991;49.368;8.528;2022-07-10T05:57:13;25.70;89.00
5932;DHT22;2991;49.368;8.528;2022-07-10T05:59:39;25.70;89.00
5932;DHT22;2991;49.368;8.528;2022-07-10T06:02:04;25.60;88.90
5932;DHT22;2991;49.368;8.528;2022-07-10T06:04:30;25.70;89.10
5932;DHT22;2991;49.368;8.528;2022-07-10T06:06:55;25.70;89.00
5932;DHT22;2991;49.368;8.528;2022-07-10T06:09:21;25.70;89.00
5932;DHT22;2991;49.368;8.528;2022-07-10T06:11:47;25.70;89.00
5932;DHT22;2991;49.368;8.528;2022-07-10T06:14:14;25.60;88.90
5932;DHT22;2991;49.368;8.528;2022-07-10T06:16:39;25.70;88.90
5932;DHT22;2991;49.368;8.528;2022-07-10T06:19:05;25.60;88.70
5932;DHT22;2991;49.368;8.528;2022-07-10T06:21:31;25.70;88.80
5932;DHT22;2991;49.368;8.528;2022-07-10T06:23:56;25.60;88.60
5932;DHT22;2991;49.368;8.528;2022-07-10T06:26:22;25.60;88.60
5932;DHT22;2991;49.368;8.528;2022-07-10T06:28:48;25.60;88.50
5932;DHT22;2991;49.368;8.528;2022-07-10T06:31:13;25.60;88.50
5932;DHT22;2991;49.368;8.528;2022-07-10T06:33:39;25.60;88.40
5932;DHT22;2991;49.368;8.528;2022-07-10T06:36:05;25.60;88.40
5932;DHT22;2991;49.368;8.528;2022-07-10T06:38:31;25.60;88.40
5932;DHT22;2991;49.368;8.528;2022-07-10T06:40:57;25.60;88.40
5932;DHT22;2991;49.368;8.528;2022-07-10T06:43:22;25.60;88.10
5932;DHT22;2991;49.368;8.528;2022-07-10T06:45:48;25.60;87.70
5932;DHT22;2991;49.368;8.528;2022-07-10T06:48:14;25.70;87.50
5932;DHT22;2991;49.368;8.528;2022-07-10T06:50:40;25.70;87.60
5932;DHT22;2991;49.368;8.528;2022-07-10T06:53:06;25.70;87.50
5932;DHT22;2991;49.368;8.528;2022-07-10T06:55:32;25.80;87.60
5932;DHT22;2991;49.368;8.528;2022-07-10T06:57:58;25.90;87.50
5932;DHT22;2991;49.368;8.528;2022-07-10T07:00:25;26.00;87.50
5932;DHT22;2991;49.368;8.528;2022-07-10T07:02:51;26.00;87.30
5932;DHT22;2991;49.368;8.528;2022-07-10T07:05:16;26.10;87.30
5932;DHT22;2991;49.368;8.528;2022-07-10T07:07:42;26.20;87.10
5932;DHT22;2991;49.368;8.528;2022-07-10T07:10:09;26.30;87.10
5932;DHT22;2991;49.368;8.528;2022-07-10T07:12:35;26.30;86.60
5932;DHT22;2991;49.368;8.528;2022-07-10T07:15:00;26.30;83.40
5932;DHT22;2991;49.368;8.528;2022-07-10T07:17:26;26.30;82.10
5932;DHT22;2991;49.368;8.528;2022-07-10T07:20:02;26.30;81.70
5932;DHT22;2991;49.368;8.528;2022-07-10T07:22:47;26.30;81.10
5932;DHT22;2991;49.368;8.528;2022-07-10T07:25:31;26.30;80.40
5932;DHT22;2991;49.368;8.528;2022-07-10T07:27:59;26.20;80.50
5932;DHT22;2991;49.368;8.528;2022-07-10T07:30:25;26.10;79.90
5932;DHT22;2991;49.368;8.528;2022-07-10T07:32:50;26.00;80.00
5932;DHT22;2991;49.368;8.528;2022-07-10T07:35:16;26.00;79.80
5932;DHT22;2991;49.368;8.528;2022-07-10T07:37:47;26.00;79.00
5932;DHT22;2991;49.368;8.528;2022-07-10T07:40:15;26.10;79.00
5932;DHT22;2991;49.368;8.528;2022-07-10T07:42:41;26.10;79.00
5932;DHT22;2991;49.368;8.528;2022-07-10T07:45:08;26.10;78.80
5932;DHT22;2991;49.368;8.528;2022-07-10T07:50:17;26.00;78.70
5932;DHT22;2991;49.368;8.528;2022-07-10T07:52:43;26.00;78.40
5932;DHT22;2991;49.368;8.528;2022-07-10T07:55:10;25.90;78.90
5932;DHT22;2991;49.368;8.528;2022-07-10T07:57:36;25.90;79.10
5932;DHT22;2991;49.368;8.528;2022-07-10T08:00:04;25.90;78.40
5932;DHT22;2991;49.368;8.528;2022-07-10T08:02:30;25.90;78.60
5932;DHT22;2991;49.368;8.528;2022-07-10T08:04:55;25.90;77.70
5932;DHT22;2991;49.368;8.528;2022-07-10T08:07:21;26.00;78.00
5932;DHT22;2991;49.368;8.528;2022-07-10T08:09:47;26.00;77.70
5932;DHT22;2991;49.368;8.528;2022-07-10T08:12:14;26.00;78.10
5932;DHT22;2991;49.368;8.528;2022-07-10T08:14:39;25.90;78.60
5932;DHT22;2991;49.368;8.528;2022-07-10T08:17:05;25.90;78.90
5932;DHT22;2991;49.368;8.528;2022-07-10T08:19:31;25.90;79.30
5932;DHT22;2991;49.368;8.528;2022-07-10T08:21:56;25.90;79.50
5932;DHT22;2991;49.368;8.528;2022-07-10T08:24:22;26.00;79.60
5932;DHT22;2991;49.368;8.528;2022-07-10T08:26:47;26.00;79.90
5932;DHT22;2991;49.368;8.528;2022-07-10T08:29:13;26.10;80.20
5932;DHT22;2991;49.368;8.528;2022-07-10T08:31:38;26.10;80.10
5932;DHT22;2991;49.368;8.528;2022-07-10T08:34:05;26.10;80.20
5932;DHT22;2991;49.368;8.528;2022-07-10T08:36:30;26.20;80.30
5932;DHT22;2991;49.368;8.528;2022-07-10T08:38:56;26.20;80.30
5932;DHT22;2991;49.368;8.528;2022-07-10T08:41:27;26.30;80.60
5932;DHT22;2991;49.368;8.528;2022-07-10T08:43:54;26.30;80.60
5932;DHT22;2991;49.368;8.528;2022-07-10T08:46:19;26.30;80.60
5932;DHT22;2991;49.368;8.528;2022-07-10T08:48:49;26.40;80.50
5932;DHT22;2991;49.368;8.528;2022-07-10T08:51:36;26.40;80.50
5932;DHT22;2991;49.368;8.528;2022-07-10T08:54:04;26.50;80.10
5932;DHT22;2991;49.368;8.528;2022-07-10T08:56:31;26.50;79.90
5932;DHT22;2991;49.368;8.528;2022-07-10T08:58:58;26.40;79.80
5932;DHT22;2991;49.368;8.528;2022-07-10T09:01:24;26.40;79.90
5932;DHT22;2991;49.368;8.528;2022-07-10T09:03:50;26.40;80.00
5932;DHT22;2991;49.368;8.528;2022-07-10T09:06:18;26.40;80.20
5932;DHT22;2991;49.368;8.528;2022-07-10T09:11:23;26.50;81.00
5932;DHT22;2991;49.368;8.528;2022-07-10T09:13:55;26.50;81.00
5932;DHT22;2991;49.368;8.528;2022-07-10T09:16:29;26.60;80.80
5932;DHT22;2991;49.368;8.528;2022-07-10T09:18:56;26.60;81.10
5932;DHT22;2991;49.368;8.528;2022-07-10T09:21:22;26.60;81.00
5932;DHT22;2991;49.368;8.528;2022-07-10T09:23:48;26.60;81.00
5932;DHT22;2991;49.368;8.528;2022-07-10T09:26:14;26.60;81.20
5932;DHT22;2991;49.368;8.528;2022-07-10T09:28:40;26.60;81.30
5932;DHT22;2991;49.368;8.528;2022-07-10T09:31:05;26.60;81.30
5932;DHT22;2991;49.368;8.528;2022-07-10T09:33:32;26.70;81.00
5932;DHT22;2991;49.368;8.528;2022-07-10T09:36:12;26.70;81.40
5932;DHT22;2991;49.368;8.528;2022-07-10T09:41:13;26.70;81.50
5932;DHT22;2991;49.368;8.528;2022-07-10T09:44:04;26.70;81.50
5932;DHT22;2991;49.368;8.528;2022-07-10T09:46:39;26.70;81.10
5932;DHT22;2991;49.368;8.528;2022-07-10T09:51:52;26.70;81.40
5932;DHT22;2991;49.368;8.528;2022-07-10T09:54:18;26.80;81.00
5932;DHT22;2991;49.368;8.528;2022-07-10T09:56:46;26.80;81.30
5932;DHT22;2991;49.368;8.528;2022-07-10T09:59:16;26.80;81.50
5932;DHT22;2991;49.368;8.528;2022-07-10T10:04:11;26.80;81.10
5932;DHT22;2991;49.368;8.528;2022-07-10T10:06:38;26.80;81.20
5932;DHT22;2991;49.368;8.528;2022-07-10T10:11:57;26.90;81.10
5932;DHT22;2991;49.368;8.528;2022-07-10T10:14:25;26.80;81.20
5932;DHT22;2991;49.368;8.528;2022-07-10T10:16:55;26.80;81.50
5932;DHT22;2991;49.368;8.528;2022-07-10T10:19:23;26.90;81.20
5932;DHT22;2991;49.368;8.528;2022-07-10T10:22:08;26.90;81.10
5932;DHT22;2991;49.368;8.528;2022-07-10T10:24:34;26.90;81.10
5932;DHT22;2991;49.368;8.528;2022-07-10T10:27:01;26.90;81.30
5932;DHT22;2991;49.368;8.528;2022-07-10T10:29:30;26.90;81.50
5932;DHT22;2991;49.368;8.528;2022-07-10T10:31:56;26.90;81.30
5932;DHT22;2991;49.368;8.528;2022-07-10T10:34:44;26.90;80.40
5932;DHT22;2991;49.368;8.528;2022-07-10T10:37:33;26.90;75.00
5932;DHT22;2991;49.368;8.528;2022-07-10T10:39:59;27.00;74.00
5932;DHT22;2991;49.368;8.528;2022-07-10T10:42:51;27.00;74.10
5932;DHT22;2991;49.368;8.528;2022-07-10T10:48:01;27.00;71.70
5932;DHT22;2991;49.368;8.528;2022-07-10T10:50:40;26.90;71.70
5932;DHT22;2991;49.368;8.528;2022-07-10T10:53:25;26.90;71.00
5932;DHT22;2991;49.368;8.528;2022-07-10T10:58:42;26.90;71.10
5932;DHT22;2991;49.368;8.528;2022-07-10T11:06:50;26.80;70.80
5932;DHT22;2991;49.368;8.528;2022-07-10T11:09:29;27.00;71.70
5932;DHT22;2991;49.368;8.528;2022-07-10T11:12:09;26.90;70.40
5932;DHT22;2991;49.368;8.528;2022-07-10T11:14:47;27.00;70.80
5932;DHT22;2991;49.368;8.528;2022-07-10T11:17:14;27.00;71.90
5932;DHT22;2991;49.368;8.528;2022-07-10T11:19:40;27.00;71.60
5932;DHT22;2991;49.368;8.528;2022-07-10T11:28:00;26.90;70.70
5932;DHT22;2991;49.368;8.528;2022-07-10T11:30:52;26.80;70.30
5932;DHT22;2991;49.368;8.528;2022-07-10T11:33:19;26.70;70.20
5932;DHT22;2991;49.368;8.528;2022-07-10T11:35:52;26.80;69.70
5932;DHT22;2991;49.368;8.528;2022-07-10T11:38:25;26.80;69.90
5932;DHT22;2991;49.368;8.528;2022-07-10T11:40:51;26.80;69.30
5932;DHT22;2991;49.368;8.528;2022-07-10T11:43:19;26.90;69.30
5932;DHT22;2991;49.368;8.528;2022-07-10T11:45:47;26.90;70.10
5932;DHT22;2991;49.368;8.528;2022-07-10T11:48:18;26.90;70.70
5932;DHT22;2991;49.368;8.528;2022-07-10T11:50:44;26.90;70.60
5932;DHT22;2991;49.368;8.528;2022-07-10T11:53:10;26.90;70.70
5932;DHT22;2991;49.368;8.528;2022-07-10T11:55:37;26.90;70.00
5932;DHT22;2991;49.368;8.528;2022-07-10T11:58:17;27.00;71.30
5932;DHT22;2991;49.368;8.528;2022-07-10T12:00:44;27.10;72.20
5932;DHT22;2991;49.368;8.528;2022-07-10T12:03:20;27.10;72.90
5932;DHT22;2991;49.368;8.528;2022-07-10T12:05:46;27.20;73.30
5932;DHT22;2991;49.368;8.528;2022-07-10T12:08:12;27.20;73.70
5932;DHT22;2991;49.368;8.528;2022-07-10T12:10:42;27.20;74.00
5932;DHT22;2991;49.368;8.528;2022-07-10T12:13:14;27.20;72.40
5932;DHT22;2991;49.368;8.528;2022-07-10T12:15:45;27.20;71.90
5932;DHT22;2991;49.368;8.528;2022-07-10T12:18:19;27.10;70.60
5932;DHT22;2991;49.368;8.528;2022-07-10T12:20:46;27.20;71.30
5932;DHT22;2991;49.368;8.528;2022-07-10T12:23:15;27.20;71.90
5932;DHT22;2991;49.368;8.528;2022-07-10T12:25:42;27.20;72.00
5932;DHT22;2991;49.368;8.528;2022-07-10T12:28:08;27.20;71.60
5932;DHT22;2991;49.368;8.528;2022-07-10T12:30:39;27.20;71.40
5932;DHT22;2991;49.368;8.528;2022-07-10T12:33:12;27.30;71.50
5932;DHT22;2991;49.368;8.528;2022-07-10T12:35:57;27.30;71.50
5932;DHT22;2991;49.368;8.528;2022-07-10T12:38:27;27.30;71.80
5932;DHT22;2991;49.368;8.528;2022-07-10T12:41:10;27.30;71.70
5932;DHT22;2991;49.368;8.528;2022-07-10T12:43:37;27.40;71.70
5932;DHT22;2991;49.368;8.528;2022-07-10T12:46:19;27.30;71.30
5932;DHT22;2991;49.368;8.528;2022-07-10T12:49:07;27.30;71.10
5932;DHT22;2991;49.368;8.528;2022-07-10T12:51:43;27.30;72.40
5932;DHT22;2991;49.368;8.528;2022-07-10T12:54:38;27.30;72.40
5932;DHT22;2991;49.368;8.528;2022-07-10T12:57:05;27.40;72.60
5932;DHT22;2991;49.368;8.528;2022-07-10T12:59:33;27.40;73.10
5932;DHT22;2991;49.368;8.528;2022-07-10T13:02:20;27.40;73.10
5932;DHT22;2991;49.368;8.528;2022-07-10T13:04:54;27.50;74.20
5932;DHT22;2991;49.368;8.528;2022-07-10T13:07:20;27.50;74.60
5932;DHT22;2991;49.368;8.528;2022-07-10T13:09:53;27.50;74.70
5932;DHT22;2991;49.368;8.528;2022-07-10T13:12:19;27.40;75.10
5932;DHT22;2991;49.368;8.528;2022-07-10T13:14:44;27.50;75.40
5932;DHT22;2991;49.368;8.528;2022-07-10T13:17:10;27.40;75.30
5932;DHT22;2991;49.368;8.528;2022-07-10T13:19:36;27.40;75.70
5932;DHT22;2991;49.368;8.528;2022-07-10T13:22:01;27.40;76.00
5932;DHT22;2991;49.368;8.528;2022-07-10T13:24:27;27.40;76.20
5932;DHT22;2991;49.368;8.528;2022-07-10T13:26:53;27.40;76.30
5932;DHT22;2991;49.368;8.528;2022-07-10T13:29:21;27.40;76.60
5932;DHT22;2991;49.368;8.528;2022-07-10T13:31:46;27.40;76.70
5932;DHT22;2991;49.368;8.528;2022-07-10T13:34:12;27.40;76.70
5932;DHT22;2991;49.368;8.528;2022-07-10T13:36:38;27.40;76.90
5932;DHT22;2991;49.368;8.528;2022-07-10T13:39:03;27.40;76.80
5932;DHT22;2991;49.368;8.528;2022-07-10T13:41:29;27.40;77.00
5932;DHT22;2991;49.368;8.528;2022-07-10T13:43:54;27.40;77.10
5932;DHT22;2991;49.368;8.528;2022-07-10T13:46:20;27.40;77.40
5932;DHT22;2991;49.368;8.528;2022-07-10T13:48:46;27.40;77.40
5932;DHT22;2991;49.368;8.528;2022-07-10T13:51:12;27.40;77.60
5932;DHT22;2991;49.368;8.528;2022-07-10T13:53:37;27.40;77.70
5932;DHT22;2991;49.368;8.528;2022-07-10T13:56:07;27.40;77.70
5932;DHT22;2991;49.368;8.528;2022-07-10T13:58:34;27.40;77.70
5932;DHT22;2991;49.368;8.528;2022-07-10T14:01:07;27.40;77.80
5932;DHT22;2991;49.368;8.528;2022-07-10T14:03:32;27.40;77.80
5932;DHT22;2991;49.368;8.528;2022-07-10T14:05:58;27.30;77.70
5932;DHT22;2991;49.368;8.528;2022-07-10T14:08:24;27.30;77.90
5932;DHT22;2991;49.368;8.528;2022-07-10T14:10:49;27.30;77.90
5932;DHT22;2991;49.368;8.528;2022-07-10T14:13:15;27.40;78.20
5932;DHT22;2991;49.368;8.528;2022-07-10T14:15:40;27.30;78.40
5932;DHT22;2991;49.368;8.528;2022-07-10T14:18:10;27.30;78.40
5932;DHT22;2991;49.368;8.528;2022-07-10T14:20:35;27.40;78.70
5932;DHT22;2991;49.368;8.528;2022-07-10T14:23:19;27.30;79.10
5932;DHT22;2991;49.368;8.528;2022-07-10T14:25:45;27.30;79.00
5932;DHT22;2991;49.368;8.528;2022-07-10T14:28:11;27.40;79.20
5932;DHT22;2991;49.368;8.528;2022-07-10T14:30:39;27.30;79.10
5932;DHT22;2991;49.368;8.528;2022-07-10T14:33:04;27.40;79.20
5932;DHT22;2991;49.368;8.528;2022-07-10T14:35:30;27.40;79.70
5932;DHT22;2991;49.368;8.528;2022-07-10T14:37:55;27.40;79.40
5932;DHT22;2991;49.368;8.528;2022-07-10T14:40:21;27.30;79.30
5932;DHT22;2991;49.368;8.528;2022-07-10T14:42:46;27.30;79.50
5932;DHT22;2991;49.368;8.528;2022-07-10T14:45:12;27.30;79.50
5932;DHT22;2991;49.368;8.528;2022-07-10T14:47:37;27.30;79.60
5932;DHT22;2991;49.368;8.528;2022-07-10T14:50:04;27.30;79.80
5932;DHT22;2991;49.368;8.528;2022-07-10T14:52:30;27.30;79.70
5932;DHT22;2991;49.368;8.528;2022-07-10T14:54:57;27.40;79.80
5932;DHT22;2991;49.368;8.528;2022-07-10T14:57:22;27.30;79.90
5932;DHT22;2991;49.368;8.528;2022-07-10T14:59:48;27.40;80.00
5932;DHT22;2991;49.368;8.528;2022-07-10T15:02:14;27.30;79.80
5932;DHT22;2991;49.368;8.528;2022-07-10T15:04:39;27.30;79.80
5932;DHT22;2991;49.368;8.528;2022-07-10T15:07:05;27.30;79.90
5932;DHT22;2991;49.368;8.528;2022-07-10T15:09:30;27.30;80.00
5932;DHT22;2991;49.368;8.528;2022-07-10T15:11:56;27.30;79.90
5932;DHT22;2991;49.368;8.528;2022-07-10T15:14:22;27.30;80.00
5932;DHT22;2991;49.368;8.528;2022-07-10T15:16:47;27.40;80.10
5932;DHT22;2991;49.368;8.528;2022-07-10T15:19:13;27.30;80.20
5932;DHT22;2991;49.368;8.528;2022-07-10T15:21:39;27.30;80.20
5932;DHT22;2991;49.368;8.528;2022-07-10T15:24:05;27.30;80.40
5932;DHT22;2991;49.368;8.528;2022-07-10T15:26:30;27.30;80.50
5932;DHT22;2991;49.368;8.528;2022-07-10T15:28:56;27.30;80.40
5932;DHT22;2991;49.368;8.528;2022-07-10T15:31:24;27.30;80.40
5932;DHT22;2991;49.368;8.528;2022-07-10T15:33:50;27.30;80.40
5932;DHT22;2991;49.368;8.528;2022-07-10T15:36:16;27.30;80.50
5932;DHT22;2991;49.368;8.528;2022-07-10T15:38:44;27.30;80.60
5932;DHT22;2991;49.368;8.528;2022-07-10T15:41:09;27.30;80.60
5932;DHT22;2991;49.368;8.528;2022-07-10T15:43:45;27.30;79.80
5932;DHT22;2991;49.368;8.528;2022-07-10T15:46:11;27.30;79.90
5932;DHT22;2991;49.368;8.528;2022-07-10T15:48:39;27.30;80.00
5932;DHT22;2991;49.368;8.528;2022-07-10T15:51:06;27.30;79.90
5932;DHT22;2991;49.368;8.528;2022-07-10T15:53:32;27.30;79.50
5932;DHT22;2991;49.368;8.528;2022-07-10T15:55:57;27.30;79.70
5932;DHT22;2991;49.368;8.528;2022-07-10T15:58:23;27.30;79.40
5932;DHT22;2991;49.368;8.528;2022-07-10T16:00:48;27.20;80.00
5932;DHT22;2991;49.368;8.528;2022-07-10T16:03:14;27.30;79.90
5932;DHT22;2991;49.368;8.528;2022-07-10T16:05:40;27.30;80.20
5932;DHT22;2991;49.368;8.528;2022-07-10T16:08:05;27.30;80.20
5932;DHT22;2991;49.368;8.528;2022-07-10T16:10:45;27.30;80.20
5932;DHT22;2991;49.368;8.528;2022-07-10T16:13:10;27.30;80.40
5932;DHT22;2991;49.368;8.528;2022-07-10T16:15:37;27.30;80.40
5932;DHT22;2991;49.368;8.528;2022-07-10T16:18:03;27.20;80.50
5932;DHT22;2991;49.368;8.528;2022-07-10T16:20:29;27.30;80.30
5932;DHT22;2991;49.368;8.528;2022-07-10T16:22:54;27.30;80.60
5932;DHT22;2991;49.368;8.528;2022-07-10T16:25:20;27.30;80.50
5932;DHT22;2991;49.368;8.528;2022-07-10T16:28:04;27.30;80.30
5932;DHT22;2991;49.368;8.528;2022-07-10T16:30:29;27.30;80.00
5932;DHT22;2991;49.368;8.528;2022-07-10T16:32:55;27.30;80.30
5932;DHT22;2991;49.368;8.528;2022-07-10T16:35:20;27.20;80.10
5932;DHT22;2991;49.368;8.528;2022-07-10T16:37:46;27.30;80.20
5932;DHT22;2991;49.368;8.528;2022-07-10T16:40:12;27.30;80.30
5932;DHT22;2991;49.368;8.528;2022-07-10T16:42:38;27.30;80.20